ΕΜΥ, Εθνική Μετεωρολογική Υπηρεσία - Δελτία Καιρού, Προγνώσεις

ΑΕΡΟΝΑΥΤΙΛΙΑ

GREEK AIRPORTS CODES

LGAV 130020Z 29002KT 9999 FEW030 BKN070 07/07 Q1005 RMK SCT180 NOSIG=

EUROPEAN AIRPORTS CODES

LFPO 130030Z 21013KT 4200 RA BR BKN008 SCT015 SCT016TCU08/07 Q0980 TEMPO 3000 RA BKN008 SCT014CB=